Time;durP1;ratioP1;P1;durP2;ratioP2;P2;SDS_P1;SDS_P2;PMS_P1;PMS_P2;Temp;Humidity;BMP_temperature;BMP_pressure;BME280_temperature;BME280_humidity;BME280_pressure;Samples;Min_cycle;Max_cycle;Signal;HPM_P1;HPM_P2
2023/08/24 00:00:15;;;;;;;7.83;7.03;;;;;;;19.69;100.00;98017.75;6204581;28;20315;-52
2023/08/24 00:03:17;;;;;;;8.17;7.37;;;;;;;19.67;100.00;98028.06;6205929;28;20685;-53
2023/08/24 00:06:19;;;;;;;8.77;7.87;;;;;;;19.64;100.00;98024.03;6204885;28;20248;-52
2023/08/24 00:09:21;;;;;;;9.00;7.50;;;;;;;19.63;100.00;98024.31;6205185;28;20358;-53
2023/08/24 00:12:24;;;;;;;8.50;7.67;;;;;;;19.62;100.00;98036.22;6204271;28;20434;-53
2023/08/24 00:15:26;;;;;;;7.90;7.10;;;;;;;19.58;100.00;98028.66;6205188;28;20247;-54
2023/08/24 00:18:28;;;;;;;8.70;7.90;;;;;;;19.55;100.00;98033.84;6227991;28;20240;-52
2023/08/24 00:21:31;;;;;;;8.00;6.87;;;;;;;19.54;100.00;98027.63;6228815;28;20315;-54
2023/08/24 00:24:33;;;;;;;10.10;8.60;;;;;;;19.52;100.00;98029.03;6225018;28;20687;-53
2023/08/24 00:27:36;;;;;;;8.97;8.17;;;;;;;19.47;100.00;98026.41;6210321;28;20333;-53
2023/08/24 00:30:38;;;;;;;9.20;8.27;;;;;;;19.42;100.00;98023.78;6228367;28;20687;-51
2023/08/24 00:33:40;;;;;;;8.60;7.80;;;;;;;19.38;100.00;98020.03;6227649;28;20238;-49
2023/08/24 00:36:42;;;;;;;9.23;8.43;;;;;;;19.27;100.00;98020.16;6227850;28;20309;-52
2023/08/24 00:39:44;;;;;;;9.40;8.00;;;;;;;19.26;100.00;98020.44;6228427;28;20243;-53
2023/08/24 00:42:47;;;;;;;9.83;8.47;;;;;;;19.19;100.00;98011.91;6210975;28;20220;-52
2023/08/24 00:45:53;;;;;;;8.90;8.00;;;;;;;19.15;100.00;98014.38;6229625;28;20219;-54
2023/08/24 00:48:59;;;;;;;10.60;9.00;;;;;;;19.06;100.00;98006.13;6214321;28;20266;-53
2023/08/24 00:52:01;;;;;;;8.30;7.60;;;;;;;19.09;100.00;98004.72;6225171;28;20302;-54
2023/08/24 00:55:05;;;;;;;9.23;8.00;;;;;;;19.07;100.00;98006.94;6227473;28;20584;-53
2023/08/24 00:58:07;;;;;;;10.47;8.27;;;;;;;19.04;100.00;98004.78;6230292;28;20219;-55
2023/08/24 01:01:10;;;;;;;9.30;8.40;;;;;;;19.01;100.00;98008.88;6227227;28;20227;-53
2023/08/24 01:04:16;;;;;;;9.27;8.30;;;;;;;18.97;100.00;98012.44;6217093;28;20208;-53
2023/08/24 01:07:20;;;;;;;10.10;8.63;;;;;;;18.92;100.00;98001.72;6235539;28;20216;-51
2023/08/24 01:10:28;;;;;;;9.07;8.20;;;;;;;18.88;100.00;98008.78;6210589;28;20295;-51
2023/08/24 01:13:59;;;;;;;9.53;8.63;;;;;;;18.84;100.00;98007.72;6238431;28;20242;-54
2023/08/24 01:17:09;;;;;;;10.83;9.00;;;;;;;18.78;100.00;98007.78;6237456;28;20235;-55
2023/08/24 01:20:15;;;;;;;9.67;7.93;;;;;;;18.70;100.00;98004.91;6203080;28;20666;-54
2023/08/24 01:23:25;;;;;;;10.43;8.77;;;;;;;18.70;100.00;98015.69;6235816;28;20205;-54
2023/08/24 01:26:30;;;;;;;9.67;8.73;;;;;;;18.65;100.00;98019.22;6235742;28;20243;-52
2023/08/24 01:29:40;;;;;;;9.70;8.90;;;;;;;18.64;100.00;98020.31;6215677;28;20290;-53
2023/08/24 01:32:43;;;;;;;10.33;9.33;;;;;;;18.60;100.00;98013.88;6203193;28;20244;-54
2023/08/24 01:35:45;;;;;;;9.80;8.93;;;;;;;18.57;100.00;98019.88;6235193;28;20745;-53
2023/08/24 01:38:59;;;;;;;10.27;9.37;;;;;;;18.56;100.00;98016.34;6226116;28;20216;-54
2023/08/24 01:42:05;;;;;;;8.40;7.67;;;;;;;18.56;100.00;98024.44;6226496;28;20223;-54
2023/08/24 01:45:10;;;;;;;9.00;8.20;;;;;;;18.59;100.00;98019.56;6232215;28;20289;-53
2023/08/24 01:48:13;;;;;;;8.93;8.23;;;;;;;18.59;100.00;98008.78;6215637;28;20691;-53
2023/08/24 01:51:16;;;;;;;9.47;8.53;;;;;;;18.60;100.00;98007.69;6221077;28;20226;-52
2023/08/24 01:54:19;;;;;;;9.07;8.17;;;;;;;18.56;100.00;98013.63;6234525;28;20238;-54
2023/08/24 01:57:21;;;;;;;8.90;8.13;;;;;;;18.51;100.00;98008.28;6231074;28;20228;-52
2023/08/24 02:00:28;;;;;;;8.83;8.03;;;;;;;18.38;100.00;97992.00;6231317;28;20345;-55
2023/08/24 02:06:54;;;;;;;8.83;8.00;;;;;;;18.36;100.00;97997.66;6229472;28;20900;-51
2023/08/24 02:09:58;;;;;;;9.10;8.30;;;;;;;18.41;100.00;98005.69;6230385;28;20695;-53
2023/08/24 02:13:03;;;;;;;8.03;7.33;;;;;;;18.43;100.00;97997.34;6229043;28;20215;-54
2023/08/24 02:16:12;;;;;;;7.77;6.97;;;;;;;18.42;100.00;98001.94;6217189;28;20683;-54
2023/08/24 02:19:15;;;;;;;8.40;7.70;;;;;;;18.37;100.00;98003.84;6210333;28;20209;-53
2023/08/24 02:22:19;;;;;;;9.33;8.03;;;;;;;18.28;100.00;97995.59;6229602;28;20332;-54
2023/08/24 02:25:23;;;;;;;9.67;8.73;;;;;;;18.24;100.00;97997.25;6235691;28;20286;-53
2023/08/24 02:28:29;;;;;;;9.87;9.00;;;;;;;18.19;100.00;98002.69;6215928;28;20689;-54
2023/08/24 02:31:33;;;;;;;8.70;7.80;;;;;;;18.14;100.00;98000.84;6217419;28;20270;-54
2023/08/24 02:34:38;;;;;;;9.07;8.17;;;;;;;18.02;100.00;97992.28;6216090;28;20231;-54
2023/08/24 02:37:43;;;;;;;9.77;8.70;;;;;;;18.02;100.00;97995.00;6231118;28;20225;-54
2023/08/24 02:40:47;;;;;;;9.90;8.90;;;;;;;17.98;100.00;97992.06;6234403;28;20870;-49
2023/08/24 02:43:50;;;;;;;9.90;8.90;;;;;;;17.94;100.00;97999.09;6233039;28;20216;-51
2023/08/24 02:46:54;;;;;;;9.03;8.23;;;;;;;17.89;100.00;97999.16;6212745;28;20761;-53
2023/08/24 02:49:57;;;;;;;8.40;7.60;;;;;;;17.90;100.00;97999.94;6214870;28;20223;-52
2023/08/24 02:53:01;;;;;;;9.30;8.50;;;;;;;17.89;100.00;98001.84;6204276;28;20222;-52
2023/08/24 02:56:05;;;;;;;9.93;8.20;;;;;;;17.90;100.00;97994.56;6233534;28;20374;-53
2023/08/24 02:59:08;;;;;;;8.80;8.00;;;;;;;17.90;100.00;97995.34;6229881;28;20289;-56
2023/08/24 03:02:11;;;;;;;8.97;8.17;;;;;;;17.88;100.00;98002.09;6234974;28;20212;-55
2023/08/24 03:05:15;;;;;;;11.73;9.07;;;;;;;17.87;100.00;98001.31;6213300;28;20400;-54
2023/08/24 03:08:20;;;;;;;9.97;9.07;;;;;;;17.85;100.00;98003.47;6235187;28;20200;-52
2023/08/24 03:11:23;;;;;;;9.73;8.73;;;;;;;17.86;100.00;98006.97;6230338;28;20217;-54
2023/08/24 03:14:26;;;;;;;8.90;8.10;;;;;;;17.84;100.00;98009.97;6215376;28;20702;-52
2023/08/24 03:17:29;;;;;;;9.20;8.30;;;;;;;17.78;100.00;98005.69;6233112;28;20248;-54
2023/08/24 03:20:32;;;;;;;9.27;8.23;;;;;;;17.75;100.00;98009.75;6231272;28;20716;-52
2023/08/24 03:23:35;;;;;;;9.77;8.67;;;;;;;17.68;100.00;98003.81;6215195;28;20220;-53
2023/08/24 03:26:38;;;;;;;9.30;8.43;;;;;;;17.62;100.00;98004.94;6213470;28;20345;-53
2023/08/24 03:29:40;;;;;;;9.33;8.43;;;;;;;17.65;100.00;98015.19;6201841;28;20291;-53
2023/08/24 03:32:43;;;;;;;9.37;8.57;;;;;;;17.62;100.00;98015.72;6232370;28;20231;-51
2023/08/24 03:35:46;;;;;;;9.63;8.63;;;;;;;17.62;100.00;98018.41;6210203;28;20228;-51
2023/08/24 03:38:48;;;;;;;9.90;8.90;;;;;;;17.61;100.00;98024.91;6215421;28;20222;-52
2023/08/24 03:41:50;;;;;;;9.93;9.03;;;;;;;17.58;100.00;98014.66;6232282;28;20220;-51
2023/08/24 03:44:53;;;;;;;10.03;8.97;;;;;;;17.57;100.00;98018.44;6234552;28;20222;-53
2023/08/24 03:47:56;;;;;;;11.13;8.93;;;;;;;17.51;100.00;98022.25;6230808;28;20223;-52
2023/08/24 03:50:58;;;;;;;9.13;8.33;;;;;;;17.52;100.00;98018.47;6210670;28;20210;-52
2023/08/24 03:54:01;;;;;;;10.80;9.70;;;;;;;17.48;100.00;98020.13;6212684;28;20786;-54
2023/08/24 03:57:03;;;;;;;9.93;8.93;;;;;;;17.45;100.00;98028.78;6212081;28;20677;-53
2023/08/24 04:00:10;;;;;;;9.93;9.10;;;;;;;17.43;100.00;98022.84;6248938;22;20255;-93
2023/08/24 04:03:16;;;;;;;9.00;8.10;;;;;;;15.59;100.00;97759.09;6218137;28;20288;-95
2023/08/24 04:06:22;;;;;;;11.27;10.07;;;;;;;15.63;100.00;97760.19;6202763;28;20251;-93
2023/08/24 04:09:24;;;;;;;10.33;9.33;;;;;;;16.83;100.00;97949.38;6217943;28;20212;-93
2023/08/24 04:12:27;;;;;;;10.13;9.17;;;;;;;16.48;100.00;97894.59;6206780;28;20211;-91
2023/08/24 04:15:29;;;;;;;11.20;10.03;;;;;;;15.57;100.00;97755.91;6232733;28;20735;-91
2023/08/24 04:18:33;;;;;;;10.23;9.33;;;;;;;15.65;100.00;97774.16;6223331;28;20224;-93
2023/08/24 04:21:38;;;;;;;9.63;8.73;;;;;;;15.89;100.00;97842.34;6192448;28;20205;-93
2023/08/24 04:24:40;;;;;;;10.43;9.43;;;;;;;15.67;100.00;97778.19;6198231;28;20215;-92
2023/08/24 04:27:43;;;;;;;9.10;8.20;;;;;;;17.21;100.00;98061.72;6216951;28;20204;-92
2023/08/24 04:30:50;;;;;;;9.27;8.43;;;;;;;15.86;100.00;97824.09;6217320;28;20212;-93
2023/08/24 04:33:53;;;;;;;12.80;11.27;;;;;;;15.93;100.00;97821.13;6215860;28;20204;-92
2023/08/24 04:36:55;;;;;;;11.77;10.77;;;;;;;16.04;100.00;97854.94;6216059;28;20212;-93
2023/08/24 04:39:57;;;;;;;11.70;10.70;;;;;;;15.55;100.00;97780.31;6199802;28;20243;-93
2023/08/24 04:43:00;;;;;;;11.63;10.43;;;;;;;16.87;100.00;97966.56;6199630;28;20210;-93
2023/08/24 04:46:02;;;;;;;9.70;8.80;;;;;;;16.36;100.00;97902.19;6215925;28;20295;-92
2023/08/24 04:49:05;;;;;;;10.07;8.80;;;;;;;16.25;100.00;97879.88;6200778;28;20216;-93
2023/08/24 04:52:07;;;;;;;11.73;9.17;;;;;;;16.43;100.00;97906.16;6212090;28;20193;-93
2023/08/24 04:55:10;;;;;;;9.10;8.37;;;;;;;16.85;100.00;97964.16;6209458;28;20224;-94
2023/08/24 04:58:13;;;;;;;9.33;8.63;;;;;;;17.42;100.00;98081.28;6191638;28;20211;-93
2023/08/24 05:01:16;;;;;;;9.90;8.90;;;;;;;16.23;100.00;97907.03;6209069;28;20291;-93
2023/08/24 05:04:18;;;;;;;9.37;8.47;;;;;;;16.12;100.00;97853.59;6191846;28;20211;-93
2023/08/24 05:07:21;;;;;;;9.67;8.80;;;;;;;15.67;100.00;97788.94;6192170;28;20200;-94
2023/08/24 05:10:24;;;;;;;11.27;8.67;;;;;;;15.56;100.00;97759.63;6207826;28;20210;-93
2023/08/24 05:13:26;;;;;;;10.93;9.87;;;;;;;16.24;100.00;97865.63;6208411;28;20294;-92
2023/08/24 05:16:29;;;;;;;12.20;10.23;;;;;;;15.78;100.00;97791.59;6214956;28;20236;-92
2023/08/24 05:19:31;;;;;;;11.07;9.93;;;;;;;15.69;100.00;97780.59;6191639;28;20217;-91
2023/08/24 05:22:34;;;;;;;10.63;9.73;;;;;;;15.89;100.00;97785.13;6206102;28;20580;-92
2023/08/24 05:25:37;;;;;;;12.27;11.07;;;;;;;15.87;100.00;97782.72;6198533;28;20211;-92
2023/08/24 05:28:41;;;;;;;12.13;10.90;;;;;;;15.70;100.00;97771.47;6208019;28;20204;-92
2023/08/24 05:31:48;;;;;;;9.57;8.77;;;;;;;16.20;100.00;97818.84;6193485;28;20237;-94
2023/08/24 05:34:50;;;;;;;9.70;8.90;;;;;;;17.39;100.00;97995.69;6191126;28;20217;-93
2023/08/24 05:37:53;;;;;;;10.47;9.47;;;;;;;17.78;100.00;98073.88;6191594;28;20224;-94
2023/08/24 05:40:55;;;;;;;12.53;10.90;;;;;;;16.73;100.00;97880.25;6207533;28;20208;-93
2023/08/24 05:43:58;;;;;;;11.33;10.33;;;;;;;16.16;100.00;97795.53;6191917;28;20213;-94
2023/08/24 05:47:00;;;;;;;10.60;9.60;;;;;;;16.84;100.00;97903.34;6208210;28;20290;-94
2023/08/24 05:50:14;;;;;;;11.90;10.73;;;;;;;16.75;100.00;97873.53;6202241;28;20207;-93
2023/08/24 05:53:25;;;;;;;11.10;10.10;;;;;;;16.14;100.00;97770.78;6178999;28;20304;-94
2023/08/24 06:02:23;;;;;;;10.70;9.70;;;;;;;18.11;100.00;98043.72;6227418;28;20227;-93
2023/08/24 06:06:28;;;;;;;10.37;9.33;;;;;;;16.86;100.00;97850.06;6183051;28;20201;-91
2023/08/24 06:10:20;;;;;;;10.97;9.93;;;;;;;18.24;100.00;98051.19;6191290;28;20291;-91
2023/08/24 06:13:43;;;;;;;11.37;10.37;;;;;;;18.26;100.00;98027.41;6214693;28;20239;-92
2023/08/24 06:16:48;;;;;;;10.37;9.37;;;;;;;17.57;100.00;97915.28;6200538;28;20263;-92
2023/08/24 06:19:51;;;;;;;12.47;10.97;;;;;;;16.61;100.00;97764.91;6218634;28;20219;-92
2023/08/24 06:22:53;;;;;;;12.63;11.53;;;;;;;18.16;100.00;97987.06;6200833;28;20212;-93
2023/08/24 06:25:56;;;;;;;12.40;11.20;;;;;;;17.63;100.00;97876.44;6217220;28;20203;-93
2023/08/24 06:28:58;;;;;;;11.93;10.83;;;;;;;17.91;100.00;97909.91;6203674;28;20215;-92
2023/08/24 06:32:00;;;;;;;12.50;11.20;;;;;;;18.26;100.00;97971.59;6205495;28;20203;-92
2023/08/24 06:35:03;;;;;;;11.50;10.50;;;;;;;18.40;100.00;97965.53;6197363;28;20248;-91
2023/08/24 06:38:06;;;;;;;10.73;9.77;;;;;;;19.04;100.00;98040.69;6200295;28;20722;-91
2023/08/24 06:41:11;;;;;;;10.03;9.13;;;;;;;17.23;100.00;97749.91;6199857;28;20212;-93
2023/08/24 06:44:14;;;;;;;9.77;8.97;;;;;;;17.70;100.00;97788.00;6200078;28;20215;-93
2023/08/24 06:47:17;;;;;;;9.90;9.10;;;;;;;18.16;100.00;97846.84;6217420;28;20215;-92
2023/08/24 06:50:20;;;;;;;8.20;7.60;;;;;;;18.75;100.00;97918.47;6200572;28;20208;-90
2023/08/24 06:53:23;;;;;;;8.50;7.80;;;;;;;19.23;100.00;97983.22;6216681;28;20680;-91
2023/08/24 06:56:26;;;;;;;8.23;7.57;;;;;;;18.60;100.00;97864.66;6200107;28;20620;-91
2023/08/24 06:59:29;;;;;;;7.67;7.07;;;;;;;19.44;100.00;97972.94;6216066;28;20346;-91
2023/08/24 07:02:31;;;;;;;8.63;7.93;;;;;;;18.54;100.00;97815.38;6200538;28;20211;-90
2023/08/24 07:05:34;;;;;;;8.17;7.47;;;;;;;19.72;100.00;97972.00;6199665;28;20211;-91
2023/08/24 07:08:38;;;;;;;7.87;7.23;;;;;;;19.72;100.00;97944.97;6199711;28;20211;-90
2023/08/24 07:11:40;;;;;;;8.67;7.80;;;;;;;20.17;100.00;97991.28;6215947;28;20943;-92
2023/08/24 07:14:43;;;;;;;8.47;7.77;;;;;;;19.93;100.00;97920.31;6217961;28;20235;-93
2023/08/24 07:18:05;;;;;;;7.80;7.20;;;;;;;20.16;100.00;97941.00;6192212;28;20247;-92
2023/08/24 07:21:07;;;;;;;8.13;7.43;;;;;;;20.08;100.00;97901.91;6215883;28;20668;-91
2023/08/24 07:24:10;;;;;;;9.10;8.20;;;;;;;19.81;100.00;97820.75;6215745;28;20208;-92
2023/08/24 07:27:13;;;;;;;8.93;8.13;;;;;;;21.46;100.00;98040.06;6215329;28;20216;-91
2023/08/24 07:30:18;;;;;;;8.43;7.63;;;;;;;20.27;100.00;97846.94;6199368;28;20219;-91
2023/08/24 07:33:35;;;;;;;8.03;7.23;;;;;;;21.33;100.00;97990.22;6201691;28;20576;-93
2023/08/24 07:36:40;;;;;;;7.43;6.83;;;;;;;21.04;100.00;97911.16;6199109;28;20235;-91
2023/08/24 07:39:43;;;;;;;8.00;7.27;;;;;;;21.21;100.00;97896.97;6216731;28;20200;-91
2023/08/24 07:42:47;;;;;;;8.03;7.33;;;;;;;21.78;99.80;97959.66;6181904;28;20669;-92
2023/08/24 07:45:50;;;;;;;9.13;7.67;;;;;;;21.72;98.44;97944.59;6174636;28;20208;-92
2023/08/24 07:48:52;;;;;;;8.70;7.90;;;;;;;20.79;96.76;97790.66;6175341;28;20228;-92
2023/08/24 07:51:57;;;;;;;7.57;6.88;;;;;;;22.09;96.20;97963.22;6174622;28;20240;-92
2023/08/24 07:55:04;;;;;;;8.37;7.67;;;;;;;22.47;95.66;97991.88;6192899;28;20219;-92
2023/08/24 07:58:11;;;;;;;8.60;7.83;;;;;;;21.22;93.91;97777.44;6179131;28;20315;-93
2023/08/24 08:01:14;;;;;;;9.30;8.23;;;;;;;21.44;92.59;97784.00;6198736;28;20380;-93
2023/08/24 08:04:42;;;;;;;7.90;7.20;;;;;;;22.35;92.56;97919.94;6185929;28;20220;-93
2023/08/24 08:07:46;;;;;;;12.77;7.88;;;;;;;22.77;91.53;97961.19;6167126;28;20217;-93
2023/08/24 08:11:00;;;;;;;8.10;7.30;;;;;;;22.48;89.73;97893.84;6183287;28;20209;-95
2023/08/24 08:14:03;;;;;;;8.95;7.05;;;;;;;23.04;89.75;97979.19;6183818;28;20664;-95
2023/08/24 08:17:07;;;;;;;10.85;9.30;;;;;;;23.32;83.48;97987.88;6184167;28;20296;-93
2023/08/24 08:20:11;;;;;;;11.20;9.27;;;;;;;23.98;81.27;98035.97;6180576;28;20205;-93
2023/08/24 08:23:14;;;;;;;13.30;8.93;;;;;;;23.60;77.87;97965.84;6164477;28;20209;-93
2023/08/24 08:26:16;;;;;;;8.98;8.18;;;;;;;22.96;81.13;97855.00;6183327;28;20328;-93
2023/08/24 08:29:20;;;;;;;10.32;7.68;;;;;;;24.03;81.98;98003.94;6165186;28;20261;-92
2023/08/24 08:32:26;;;;;;;9.23;8.18;;;;;;;23.53;80.25;97922.00;6177733;28;20323;-90
2023/08/24 08:35:44;;;;;;;10.73;8.77;;;;;;;24.13;77.84;97981.81;6159359;28;20724;-90
2023/08/24 08:38:51;;;;;;;9.60;7.43;;;;;;;23.60;79.32;97914.19;6194874;28;20384;-90
2023/08/24 08:41:53;;;;;;;12.90;8.82;;;;;;;24.13;73.06;97956.53;6164920;28;20686;-93
2023/08/24 08:44:59;;;;;;;11.85;9.25;;;;;;;24.28;72.92;97949.75;6198285;28;20209;-93
2023/08/24 08:48:03;;;;;;;14.27;7.82;;;;;;;24.10;74.14;97910.91;6165240;28;20674;-93
2023/08/24 08:51:06;;;;;;;9.15;8.23;;;;;;;23.84;73.54;97864.69;6165541;28;20666;-94
2023/08/24 08:54:10;;;;;;;10.45;7.82;;;;;;;24.35;73.38;97918.19;6179357;28;20228;-92
2023/08/24 08:57:17;;;;;;;13.85;9.85;;;;;;;24.38;68.93;97914.03;6178825;28;20320;-93
2023/08/24 09:00:20;;;;;;;12.90;8.70;;;;;;;24.58;69.14;97939.75;6179697;28;20237;-93
2023/08/24 09:03:23;;;;;;;7.95;7.10;;;;;;;24.25;67.33;97863.31;6166166;28;20564;-93
2023/08/24 09:06:31;;;;;;;11.40;7.85;;;;;;;24.64;66.01;97886.72;6197997;28;20588;-95
2023/08/24 09:15:15;;;;;;;8.43;7.45;;;;;;;25.60;65.24;98026.78;6174174;28;20212;-93
2023/08/24 09:19:11;;;;;;;9.32;7.30;;;;;;;24.50;67.29;97831.66;6181762;28;20240;-92
2023/08/24 09:22:16;;;;;;;7.90;6.80;;;;;;;25.81;66.98;98053.31;6161441;28;20209;-92
2023/08/24 09:25:24;;;;;;;7.68;6.90;;;;;;;25.95;64.94;98021.09;6200222;28;20241;-92
2023/08/24 12:09:40;;;;;;;6.95;6.28;;;;;;;28.70;49.40;97887.19;6263654;28;20556;-55
2023/08/24 12:12:42;;;;;;;8.05;6.70;;;;;;;28.75;50.01;97881.44;6258062;27;20197;-55
2023/08/24 12:15:47;;;;;;;6.72;6.13;;;;;;;28.75;51.24;97876.75;6255996;27;20221;-56
2023/08/24 12:18:54;;;;;;;6.90;6.20;;;;;;;28.77;51.20;97874.47;6246558;28;20319;-56
2023/08/24 12:21:56;;;;;;;8.57;6.65;;;;;;;28.71;49.66;97872.31;6210989;28;20700;-56
2023/08/24 12:24:58;;;;;;;7.13;6.35;;;;;;;28.61;48.95;97859.16;6217498;28;20582;-57
2023/08/24 12:28:10;;;;;;;10.02;6.60;;;;;;;28.68;50.17;97873.06;6211589;28;20405;-56
2023/08/24 12:31:14;;;;;;;9.32;6.20;;;;;;;28.65;51.24;97866.34;6212852;28;20260;-57
2023/08/24 12:34:16;;;;;;;7.75;6.55;;;;;;;28.73;50.03;97859.88;6214663;28;20247;-56
2023/08/24 12:37:19;;;;;;;6.80;6.10;;;;;;;28.74;48.79;97855.19;6211786;28;20581;-56
2023/08/24 12:40:22;;;;;;;8.65;6.60;;;;;;;28.71;50.33;97842.97;6212725;28;20242;-56
2023/08/24 12:43:27;;;;;;;6.63;5.88;;;;;;;28.69;50.82;97847.22;6210822;28;20247;-56
2023/08/24 12:46:32;;;;;;;6.78;6.15;;;;;;;28.70;50.10;97840.59;6211682;28;20330;-56
2023/08/24 12:49:34;;;;;;;7.32;5.97;;;;;;;28.68;50.25;97840.16;6209238;28;20585;-56
2023/08/24 12:52:36;;;;;;;7.22;6.53;;;;;;;28.70;50.96;97829.63;6212374;28;20236;-55
2023/08/24 12:55:40;;;;;;;8.05;6.47;;;;;;;28.83;51.05;97827.56;6214032;28;20315;-55
2023/08/24 12:58:42;;;;;;;9.55;6.68;;;;;;;28.83;51.30;97825.63;6210446;28;20285;-56
2023/08/24 13:01:44;;;;;;;8.40;5.90;;;;;;;28.76;51.52;97817.22;6211683;28;20228;-54
2023/08/24 13:04:46;;;;;;;9.15;5.60;;;;;;;28.68;50.26;97812.75;6210819;28;20228;-53
2023/08/24 13:07:51;;;;;;;8.55;6.07;;;;;;;28.65;49.32;97813.44;6213403;28;20235;-54
2023/08/24 13:10:54;;;;;;;6.70;5.93;;;;;;;28.70;49.90;97804.94;6207237;28;20228;-54
2023/08/24 13:13:56;;;;;;;7.53;5.85;;;;;;;28.69;50.96;97806.91;6191602;28;20232;-54
2023/08/24 13:16:58;;;;;;;8.57;5.95;;;;;;;28.66;52.07;97807.59;6197025;28;20229;-54
2023/08/24 13:20:01;;;;;;;7.72;5.90;;;;;;;28.70;50.31;97805.72;6194154;28;20236;-54
2023/08/24 13:23:04;;;;;;;9.43;6.03;;;;;;;28.67;51.56;97803.72;6276088;28;20309;-54
2023/08/24 13:26:18;;;;;;;8.93;6.20;;;;;;;28.51;48.88;97775.53;6191686;28;20951;-54
2023/08/24 13:29:20;;;;;;;6.60;6.00;;;;;;;28.66;49.48;97804.84;6193925;28;20236;-53
2023/08/24 13:32:22;;;;;;;6.60;6.00;;;;;;;28.57;47.52;97773.31;6195230;28;20252;-54
2023/08/24 13:35:25;;;;;;;7.03;5.72;;;;;;;28.68;50.17;97788.88;6191800;28;20224;-53
2023/08/24 13:38:27;;;;;;;8.60;6.15;;;;;;;28.58;50.99;97783.16;6191705;28;20255;-54
2023/08/24 13:41:30;;;;;;;5.82;5.28;;;;;;;28.68;48.42;97777.91;6196570;28;20720;-51
2023/08/24 13:44:32;;;;;;;7.00;6.20;;;;;;;28.81;49.93;97795.00;6194593;28;20274;-53
2023/08/24 13:47:34;;;;;;;6.05;5.28;;;;;;;28.55;51.50;97751.75;6190873;28;20225;-53
2023/08/24 13:50:36;;;;;;;8.00;5.57;;;;;;;28.73;51.82;97785.84;6194733;28;20237;-55
2023/08/24 13:53:39;;;;;;;7.63;5.28;;;;;;;28.74;51.41;97787.41;6188585;28;20228;-55
2023/08/24 13:56:42;;;;;;;7.78;6.20;;;;;;;28.72;49.82;97783.47;6200547;28;20793;-55
2023/08/24 13:59:44;;;;;;;9.25;5.63;;;;;;;28.78;50.36;97788.28;6194609;28;20255;-55
2023/08/24 14:02:48;;;;;;;5.57;4.80;;;;;;;28.81;50.19;97775.81;6195125;28;20228;-55
2023/08/24 14:05:58;;;;;;;6.03;5.38;;;;;;;28.85;50.09;97773.94;6194328;28;20271;-56
2023/08/24 14:09:02;;;;;;;6.45;5.70;;;;;;;28.78;50.91;97768.31;6320246;28;20236;-55
2023/08/24 14:12:06;;;;;;;6.47;4.93;;;;;;;28.69;50.79;97764.97;6193538;28;20596;-55
2023/08/24 14:15:10;;;;;;;5.95;5.40;;;;;;;28.63;50.39;97769.16;6190184;28;20221;-55
2023/08/24 14:18:13;;;;;;;8.90;5.53;;;;;;;28.51;50.34;97759.09;6195399;28;20241;-55
2023/08/24 14:21:16;;;;;;;5.82;5.32;;;;;;;28.44;50.94;97740.56;6194874;28;20321;-55
2023/08/24 14:24:29;;;;;;;6.90;5.78;;;;;;;28.38;51.30;97752.97;6196059;28;20731;-54
2023/08/24 14:27:32;;;;;;;7.30;5.65;;;;;;;28.37;50.96;97737.63;6190775;28;20229;-53
2023/08/24 14:30:34;;;;;;;6.10;5.53;;;;;;;28.39;51.33;97743.56;6194315;28;20281;-54
2023/08/24 14:33:37;;;;;;;8.07;5.90;;;;;;;28.40;50.26;97745.16;6190626;28;20312;-54
2023/08/24 14:36:39;;;;;;;6.05;5.47;;;;;;;28.44;51.71;97737.03;6193561;28;20239;-54
2023/08/24 14:39:41;;;;;;;6.93;5.22;;;;;;;28.34;53.13;97730.16;6191897;28;20243;-54
2023/08/24 14:42:44;;;;;;;6.28;5.35;;;;;;;28.23;54.59;97729.09;6195495;28;20229;-54
2023/08/24 14:45:46;;;;;;;8.63;5.90;;;;;;;28.15;53.69;97722.66;6192933;28;20236;-53
2023/08/24 14:48:48;;;;;;;7.65;5.97;;;;;;;28.31;51.08;97724.56;6190317;28;20282;-53
2023/08/24 14:51:50;;;;;;;8.10;6.10;;;;;;;28.35;51.71;97718.03;6191815;28;20292;-53
2023/08/24 14:54:53;;;;;;;6.38;5.78;;;;;;;28.54;51.54;97725.50;6196933;28;20232;-55
2023/08/24 14:57:57;;;;;;;5.82;5.32;;;;;;;28.35;53.88;97720.78;6189302;28;20225;-55
2023/08/24 15:00:59;;;;;;;9.85;5.82;;;;;;;28.15;54.11;97708.94;6188727;28;20315;-54
2023/08/24 15:04:02;;;;;;;5.97;5.40;;;;;;;28.05;54.51;97711.44;6191101;28;20775;-55
2023/08/24 15:07:04;;;;;;;7.65;5.65;;;;;;;27.94;55.13;97708.47;6194286;28;20246;-55
2023/08/24 15:10:06;;;;;;;6.15;5.60;;;;;;;27.90;54.36;97702.88;6197027;28;20373;-55
2023/08/24 15:13:09;;;;;;;6.65;6.05;;;;;;;27.85;54.40;97697.69;6195093;28;20406;-56
2023/08/24 15:16:11;;;;;;;6.95;5.35;;;;;;;27.82;55.57;97701.13;6199125;28;20243;-54
2023/08/24 15:19:13;;;;;;;7.05;6.00;;;;;;;27.77;56.00;97695.91;6193088;28;20685;-55
2023/08/24 15:22:16;;;;;;;10.68;6.20;;;;;;;27.74;56.25;97694.69;6195807;28;20220;-54
2023/08/24 15:25:18;;;;;;;6.40;5.38;;;;;;;27.66;56.84;97690.16;6189000;28;20831;-55
2023/08/24 15:28:21;;;;;;;5.60;5.00;;;;;;;27.59;56.34;97695.47;6195208;28;20234;-55
2023/08/24 15:31:24;;;;;;;6.72;5.63;;;;;;;27.55;56.23;97697.31;6189124;28;20770;-54
2023/08/24 15:34:26;;;;;;;8.52;5.65;;;;;;;27.58;55.20;97696.59;6194762;28;20251;-55
2023/08/24 15:37:28;;;;;;;8.27;6.15;;;;;;;27.61;55.83;97700.56;6192932;28;20756;-55
2023/08/24 15:40:34;;;;;;;5.80;5.30;;;;;;;27.57;55.35;97695.00;6186600;28;20264;-55
2023/08/24 15:43:36;;;;;;;7.97;5.43;;;;;;;27.53;56.29;97692.19;6192514;28;20259;-54
2023/08/24 15:46:39;;;;;;;8.18;5.20;;;;;;;27.48;56.30;97689.69;6192428;28;20236;-55
2023/08/24 15:49:41;;;;;;;6.28;5.30;;;;;;;27.49;56.17;97693.25;6192922;28;20254;-55
2023/08/24 15:52:44;;;;;;;6.30;4.88;;;;;;;27.41;57.26;97683.28;6188562;28;20304;-55
2023/08/24 15:55:46;;;;;;;5.50;5.10;;;;;;;27.36;58.02;97683.53;6190790;28;20236;-55
2023/08/24 15:58:48;;;;;;;10.02;5.95;;;;;;;27.21;57.97;97672.22;6188145;28;20786;-53
2023/08/24 16:01:51;;;;;;;6.07;5.47;;;;;;;27.23;58.33;97678.13;6195724;28;20237;-55
2023/08/24 16:04:55;;;;;;;7.30;6.60;;;;;;;27.16;59.00;97672.47;6191561;28;20313;-52
2023/08/24 16:07:57;;;;;;;11.77;10.05;;;;;;;27.08;60.31;97667.16;6195037;28;20237;-54
2023/08/24 16:11:08;;;;;;;7.68;6.88;;;;;;;26.94;60.16;97659.34;6187572;28;20240;-53
2023/08/24 16:14:13;;;;;;;9.95;6.18;;;;;;;26.82;60.80;97652.00;6186460;28;20253;-52
2023/08/24 16:17:15;;;;;;;7.20;6.50;;;;;;;26.79;60.79;97651.91;6194834;28;20821;-53
2023/08/24 16:20:17;;;;;;;8.05;7.32;;;;;;;26.86;61.78;97665.78;6195644;28;20232;-54
2023/08/24 16:23:19;;;;;;;7.30;6.70;;;;;;;26.79;61.46;97658.16;6192076;28;20612;-53
2023/08/24 16:26:22;;;;;;;7.38;6.32;;;;;;;26.74;61.81;97655.69;6191520;28;20232;-52
2023/08/24 16:29:26;;;;;;;6.97;6.20;;;;;;;26.70;61.74;97654.81;6188432;28;20236;-53
2023/08/24 16:32:29;;;;;;;7.63;6.90;;;;;;;26.66;62.44;97659.38;6198189;28;20225;-51
2023/08/24 16:35:31;;;;;;;6.18;5.68;;;;;;;26.60;62.70;97647.06;6190967;28;20745;-52
2023/08/24 16:38:35;;;;;;;6.88;5.90;;;;;;;26.53;62.82;97655.09;6193574;28;20239;-53
2023/08/24 16:41:37;;;;;;;6.93;6.25;;;;;;;26.44;64.62;97647.03;6184962;28;20228;-52
2023/08/24 16:44:39;;;;;;;8.68;6.63;;;;;;;26.35;65.38;97641.66;6194717;28;20235;-52
2023/08/24 16:47:41;;;;;;;7.28;6.57;;;;;;;26.28;66.09;97638.75;6193926;28;20232;-52
2023/08/24 16:50:44;;;;;;;6.63;5.97;;;;;;;26.23;66.23;97636.25;6196690;28;20232;-52
2023/08/24 16:53:46;;;;;;;15.43;12.20;;;;;;;26.15;65.93;97640.69;6194537;28;20457;-54
2023/08/24 16:56:49;;;;;;;11.93;9.13;;;;;;;26.06;67.73;97631.84;6194910;28;20329;-54
2023/08/24 16:59:52;;;;;;;8.05;7.30;;;;;;;25.99;66.02;97637.09;6196809;28;20721;-53
2023/08/24 17:02:58;;;;;;;9.85;8.27;;;;;;;25.91;68.18;97635.28;6195745;28;20744;-52
2023/08/24 17:06:00;;;;;;;7.68;6.82;;;;;;;25.84;68.34;97643.25;6182745;28;20242;-53
2023/08/24 17:09:04;;;;;;;8.75;7.68;;;;;;;25.69;69.59;97650.97;6177527;28;20237;-51
2023/08/24 17:12:06;;;;;;;14.05;12.75;;;;;;;25.64;69.40;97650.38;6192995;28;20217;-53
2023/08/24 17:15:10;;;;;;;9.20;8.07;;;;;;;25.52;70.55;97655.81;6198888;28;20217;-54